11:30
Airports
Links
Donate
Help keep this website running!
PayPal
Bitcoin
METAR
CYQT 201100Z 01004KT 10SM -SN OVC016 M15/M17 A3003 RMK SC8 SLP190
Current Weather Conditions at CYQT
MVFR 11:00:00 20-02-18
Altimeter:30.03 hg
Temp:-15.0°cf
Dew point:-17.0°cf
Wind:4 knots, 4.6 mph, 2 m/s, from 10°
Visibility:10.0 statute miles
1600(OVC) Overcast
Past METAR reports
MVFR 10:22:00 20-02-18
Altimeter:30.03 hg
Temp:-15.0°cf
Dew point:-17.0°cf
Wind:4 knots, 4.6 mph, 2 m/s, from 30°
Visibility:8.0 statute miles
1400(OVC) Overcast
CYQT 201022Z 03004KT 340V090 8SM -SN OVC014 M15/M17 A3003 RMK SC8 SLP188
MVFR 10:00:00 20-02-18
Altimeter:30.01 hg
Temp:-15.0°cf
Dew point:-17.0°cf
Wind:6 knots, 6.9 mph, 3 m/s, from 20°
Visibility:8.0 statute miles
1600(OVC) Overcast
CYQT 201000Z 02006KT 8SM -SN OVC016 M15/M17 A3001 RMK SC8 SLP182
MVFR 09:00:00 20-02-18
Altimeter:30.07 hg
Temp:-15.0°cf
Dew point:-18.0°c -0°f
Wind:8 knots, 9.2 mph, 4 m/s, from 30°
Visibility:8.0 statute miles
2000(OVC) Overcast
CYQT 200900Z 03008KT 8SM -SN OVC020 M15/M18 A3007 RMK SC8 SLP204
MVFR 08:52:00 20-02-18
Altimeter:30.08 hg
Temp:-15.0°cf
Dew point:-18.0°c -0°f
Wind:6 knots, 6.9 mph, 3 m/s, from 40°
Visibility:15.0 statute miles
2000(OVC) Overcast
CYQT 200852Z 04006KT 350V050 15SM -SN OVC020 M15/M18 A3008 RMK SC8 PRESFR SLP206
VFR 08:00:00 20-02-18
Altimeter:30.11 hg
Temp:-15.0°cf
Dew point:-18.0°c -0°f
Wind:7 knots, 8.1 mph, 4 m/s, from 30°
Visibility:15.0 statute miles
4600(OVC) Overcast
CYQT 200800Z 03007KT 15SM OVC046 M15/M18 A3011 RMK SC8 SLP217
VFR 07:49:00 20-02-18
Altimeter:30.12 hg
Temp:-14.0°cf
Dew point:-18.0°c -0°f
Wind:6 knots, 6.9 mph, 3 m/s, from 30°
Visibility:15.0 statute miles
4800(OVC) Overcast
CYQT 200749Z 03006KT 15SM OVC048 M14/M18 A3012 RMK SC8 SLP218
TAF
TAF CYQT 200738Z 2008/2020 04006KT P6SM -SN OVC050 TEMPO 2008/2011 2SM -SN OVC020 FM201100 02008KT 1SM -SN OVC008 TEMPO 2011/2019 4SM -SN OVC020 FM201900 02008KT 3SM -SN OVC025 RMK NXT FCST BY 201400Z
Forecast at CYQT
TEMPO 08:00 20-02-18 to 11:00 20-02-18
-SN
Visibility:2.0 statute miles
2000OVC Overcast
08:00 20-02-18 to 11:00 20-02-18
-SN
Wind:6 Knots from 40°
Visibility:6.21 statute miles
5000OVC Overcast
TEMPO 11:00 20-02-18 to 19:00 20-02-18
-SN
Visibility:4.0 statute miles
2000OVC Overcast
FM 11:00 20-02-18 to 19:00 20-02-18
-SN
Wind:8 Knots from 20°
Visibility:1.0 statute miles
800OVC Overcast
FM 19:00 20-02-18 to 20:00 20-02-18
-SN
Wind:8 Knots from 20°
Visibility:3.0 statute miles
2500OVC Overcast